sensor_id;sensor_type;location;lat;lon;timestamp;pressure;altitude;pressure_sealevel;temperature;humidity
6134;BME280;3098;42.678;23.364;2023-08-12T00:02:34;95477.34;;;17.33;100.00
6134;BME280;3098;42.678;23.364;2023-08-12T00:05:02;95454.22;;;17.04;100.00
6134;BME280;3098;42.678;23.364;2023-08-12T00:07:31;95456.47;;;17.14;100.00
6134;BME280;3098;42.678;23.364;2023-08-12T00:09:59;95515.09;;;17.28;100.00
6134;BME280;3098;42.678;23.364;2023-08-12T00:12:26;95361.16;;;16.44;100.00
6134;BME280;3098;42.678;23.364;2023-08-12T00:14:53;95484.25;;;17.21;100.00
6134;BME280;3098;42.678;23.364;2023-08-12T00:17:20;95449.09;;;16.99;100.00
6134;BME280;3098;42.678;23.364;2023-08-12T00:19:47;95371.88;;;16.44;100.00
6134;BME280;3098;42.678;23.364;2023-08-12T00:22:15;95487.84;;;17.13;100.00
6134;BME280;3098;42.678;23.364;2023-08-12T00:24:43;95477.66;;;17.07;100.00
6134;BME280;3098;42.678;23.364;2023-08-12T00:27:11;95479.44;;;17.15;100.00
6134;BME280;3098;42.678;23.364;2023-08-12T00:29:38;95125.34;;;14.62;100.00
6134;BME280;3098;42.678;23.364;2023-08-12T00:32:05;95430.28;;;16.75;100.00
6134;BME280;3098;42.678;23.364;2023-08-12T00:34:32;95471.97;;;16.96;100.00
6134;BME280;3098;42.678;23.364;2023-08-12T00:36:59;95212.56;;;15.32;100.00
6134;BME280;3098;42.678;23.364;2023-08-12T00:39:27;95469.06;;;17.01;100.00
6134;BME280;3098;42.678;23.364;2023-08-12T00:41:55;95401.88;;;16.49;100.00
6134;BME280;3098;42.678;23.364;2023-08-12T00:44:22;95481.66;;;16.89;100.00
6134;BME280;3098;42.678;23.364;2023-08-12T00:46:50;95436.66;;;16.70;100.00
6134;BME280;3098;42.678;23.364;2023-08-12T00:49:18;95476.31;;;16.89;100.00
6134;BME280;3098;42.678;23.364;2023-08-12T00:51:45;95361.56;;;16.22;100.00
6134;BME280;3098;42.678;23.364;2023-08-12T00:54:14;95399.31;;;16.41;100.00
6134;BME280;3098;42.678;23.364;2023-08-12T00:56:42;95352.66;;;16.18;100.00
6134;BME280;3098;42.678;23.364;2023-08-12T00:59:12;95470.19;;;16.88;100.00
6134;BME280;3098;42.678;23.364;2023-08-12T01:01:40;95464.03;;;16.88;100.00
6134;BME280;3098;42.678;23.364;2023-08-12T01:04:08;95419.53;;;16.50;100.00
6134;BME280;3098;42.678;23.364;2023-08-12T01:06:35;95370.84;;;16.24;100.00
6134;BME280;3098;42.678;23.364;2023-08-12T01:09:04;95459.44;;;16.76;100.00
6134;BME280;3098;42.678;23.364;2023-08-12T01:11:37;95387.81;;;16.28;100.00
6134;BME280;3098;42.678;23.364;2023-08-12T01:14:12;95369.69;;;16.13;100.00
6134;BME280;3098;42.678;23.364;2023-08-12T01:16:45;95462.66;;;16.70;100.00
6134;BME280;3098;42.678;23.364;2023-08-12T01:19:22;95369.59;;;16.22;100.00
6134;BME280;3098;42.678;23.364;2023-08-12T01:21:55;95281.25;;;15.52;100.00
6134;BME280;3098;42.678;23.364;2023-08-12T01:24:27;95429.53;;;16.41;100.00
6134;BME280;3098;42.678;23.364;2023-08-12T01:26:54;95209.84;;;15.00;100.00
6134;BME280;3098;42.678;23.364;2023-08-12T01:29:21;95462.75;;;16.61;100.00
6134;BME280;3098;42.678;23.364;2023-08-12T01:31:53;95458.44;;;16.69;100.00
6134;BME280;3098;42.678;23.364;2023-08-12T01:34:28;95408.44;;;16.28;100.00
6134;BME280;3098;42.678;23.364;2023-08-12T01:37:02;95405.31;;;16.26;100.00
6134;BME280;3098;42.678;23.364;2023-08-12T01:39:33;95407.78;;;16.31;100.00
6134;BME280;3098;42.678;23.364;2023-08-12T01:42:03;95372.91;;;16.06;100.00
6134;BME280;3098;42.678;23.364;2023-08-12T01:44:30;95452.88;;;16.53;100.00
6134;BME280;3098;42.678;23.364;2023-08-12T01:46:57;95453.75;;;16.45;100.00
6134;BME280;3098;42.678;23.364;2023-08-12T01:49:26;95459.13;;;16.45;100.00
6134;BME280;3098;42.678;23.364;2023-08-12T01:51:53;95107.38;;;14.30;100.00
6134;BME280;3098;42.678;23.364;2023-08-12T01:54:20;95437.88;;;16.28;100.00
6134;BME280;3098;42.678;23.364;2023-08-12T01:56:48;95411.06;;;16.16;100.00
6134;BME280;3098;42.678;23.364;2023-08-12T01:59:15;95213.72;;;14.69;100.00
6134;BME280;3098;42.678;23.364;2023-08-12T02:01:42;95462.19;;;16.35;100.00
6134;BME280;3098;42.678;23.364;2023-08-12T02:04:09;95335.84;;;15.51;100.00
6134;BME280;3098;42.678;23.364;2023-08-12T02:06:37;95458.28;;;16.32;100.00
6134;BME280;3098;42.678;23.364;2023-08-12T02:09:04;95397.97;;;16.02;100.00
6134;BME280;3098;42.678;23.364;2023-08-12T02:11:31;95292.97;;;15.19;100.00
6134;BME280;3098;42.678;23.364;2023-08-12T02:13:59;95459.38;;;16.19;100.00
6134;BME280;3098;42.678;23.364;2023-08-12T02:16:26;95461.25;;;16.19;100.00
6134;BME280;3098;42.678;23.364;2023-08-12T02:18:53;95456.91;;;16.14;100.00
6134;BME280;3098;42.678;23.364;2023-08-12T02:21:20;95455.66;;;16.12;100.00
6134;BME280;3098;42.678;23.364;2023-08-12T02:23:47;95424.16;;;15.96;100.00
6134;BME280;3098;42.678;23.364;2023-08-12T02:26:15;95380.56;;;15.63;100.00
6134;BME280;3098;42.678;23.364;2023-08-12T02:28:42;95459.25;;;16.16;100.00
6134;BME280;3098;42.678;23.364;2023-08-12T02:31:10;95459.44;;;16.10;100.00
6134;BME280;3098;42.678;23.364;2023-08-12T02:33:37;95455.00;;;16.15;100.00
6134;BME280;3098;42.678;23.364;2023-08-12T02:36:04;95279.81;;;14.93;100.00
6134;BME280;3098;42.678;23.364;2023-08-12T02:38:32;95465.38;;;16.16;100.00
6134;BME280;3098;42.678;23.364;2023-08-12T02:40:59;95451.34;;;15.98;100.00
6134;BME280;3098;42.678;23.364;2023-08-12T02:43:25;95449.09;;;15.68;100.00
6134;BME280;3098;42.678;23.364;2023-08-12T02:45:52;95398.59;;;15.45;100.00
6134;BME280;3098;42.678;23.364;2023-08-12T02:48:21;95470.94;;;15.90;100.00
6134;BME280;3098;42.678;23.364;2023-08-12T02:50:48;95468.94;;;15.87;100.00
6134;BME280;3098;42.678;23.364;2023-08-12T02:53:15;95456.97;;;15.64;100.00
6134;BME280;3098;42.678;23.364;2023-08-12T02:55:44;95444.25;;;15.61;100.00
6134;BME280;3098;42.678;23.364;2023-08-12T02:58:11;95430.81;;;15.70;100.00
6134;BME280;3098;42.678;23.364;2023-08-12T03:00:41;95410.22;;;15.70;100.00
6134;BME280;3098;42.678;23.364;2023-08-12T03:03:09;95475.94;;;16.13;100.00
6134;BME280;3098;42.678;23.364;2023-08-12T03:05:37;95399.44;;;15.58;100.00
6134;BME280;3098;42.678;23.364;2023-08-12T03:08:05;95353.53;;;15.35;100.00
6134;BME280;3098;42.678;23.364;2023-08-12T03:10:33;95440.81;;;15.81;100.00
6134;BME280;3098;42.678;23.364;2023-08-12T03:13:00;95439.56;;;15.79;100.00
6134;BME280;3098;42.678;23.364;2023-08-12T03:15:27;95416.69;;;15.48;100.00
6134;BME280;3098;42.678;23.364;2023-08-12T03:17:56;95403.50;;;15.43;100.00
6134;BME280;3098;42.678;23.364;2023-08-12T03:20:23;95484.38;;;16.02;100.00
6134;BME280;3098;42.678;23.364;2023-08-12T03:22:52;95425.09;;;15.59;100.00
6134;BME280;3098;42.678;23.364;2023-08-12T03:25:19;95489.16;;;15.97;100.00
6134;BME280;3098;42.678;23.364;2023-08-12T03:27:46;95489.44;;;15.83;100.00
6134;BME280;3098;42.678;23.364;2023-08-12T03:30:13;95283.28;;;14.44;100.00
6134;BME280;3098;42.678;23.364;2023-08-12T03:32:41;95488.38;;;15.76;100.00
6134;BME280;3098;42.678;23.364;2023-08-12T03:35:08;95482.91;;;15.72;100.00
6134;BME280;3098;42.678;23.364;2023-08-12T03:37:35;95446.13;;;15.40;100.00
6134;BME280;3098;42.678;23.364;2023-08-12T03:40:05;95267.53;;;14.21;100.00
6134;BME280;3098;42.678;23.364;2023-08-12T03:42:32;95466.78;;;15.60;100.00
6134;BME280;3098;42.678;23.364;2023-08-12T03:44:59;95504.16;;;15.69;100.00
6134;BME280;3098;42.678;23.364;2023-08-12T03:47:26;95501.16;;;15.70;100.00
6134;BME280;3098;42.678;23.364;2023-08-12T03:49:54;95494.03;;;15.45;100.00
6134;BME280;3098;42.678;23.364;2023-08-12T03:52:21;95460.56;;;15.18;100.00
6134;BME280;3098;42.678;23.364;2023-08-12T03:54:48;95501.81;;;15.38;100.00
6134;BME280;3098;42.678;23.364;2023-08-12T03:57:17;95468.94;;;15.08;100.00
6134;BME280;3098;42.678;23.364;2023-08-12T03:59:43;95290.53;;;13.88;100.00
6134;BME280;3098;42.678;23.364;2023-08-12T04:02:11;95463.31;;;15.01;100.00
6134;BME280;3098;42.678;23.364;2023-08-12T04:04:38;95477.72;;;15.09;100.00
6134;BME280;3098;42.678;23.364;2023-08-12T04:07:05;95415.56;;;14.53;100.00
6134;BME280;3098;42.678;23.364;2023-08-12T04:09:32;95481.22;;;15.01;100.00
6134;BME280;3098;42.678;23.364;2023-08-12T04:11:59;95506.00;;;15.18;100.00
6134;BME280;3098;42.678;23.364;2023-08-12T04:14:27;95328.91;;;14.13;100.00
6134;BME280;3098;42.678;23.364;2023-08-12T04:16:55;95440.75;;;14.81;100.00
6134;BME280;3098;42.678;23.364;2023-08-12T04:19:22;95305.28;;;13.86;100.00
6134;BME280;3098;42.678;23.364;2023-08-12T04:21:49;95509.47;;;15.48;100.00
6134;BME280;3098;42.678;23.364;2023-08-12T04:24:16;95512.31;;;15.43;100.00
6134;BME280;3098;42.678;23.364;2023-08-12T04:26:43;95412.50;;;14.80;100.00
6134;BME280;3098;42.678;23.364;2023-08-12T04:29:10;95513.53;;;15.54;100.00
6134;BME280;3098;42.678;23.364;2023-08-12T04:31:40;95464.81;;;15.48;100.00
6134;BME280;3098;42.678;23.364;2023-08-12T04:34:07;95449.88;;;15.47;100.00
6134;BME280;3098;42.678;23.364;2023-08-12T04:36:34;95516.44;;;15.61;100.00
6134;BME280;3098;42.678;23.364;2023-08-12T04:39:01;95502.44;;;15.64;100.00
6134;BME280;3098;42.678;23.364;2023-08-12T04:41:29;95518.97;;;15.66;100.00
6134;BME280;3098;42.678;23.364;2023-08-12T04:43:57;95360.38;;;14.74;100.00
6134;BME280;3098;42.678;23.364;2023-08-12T04:46:24;95378.09;;;15.08;100.00
6134;BME280;3098;42.678;23.364;2023-08-12T04:48:52;95447.06;;;15.35;100.00
6134;BME280;3098;42.678;23.364;2023-08-12T04:51:19;95527.41;;;15.97;100.00
6134;BME280;3098;42.678;23.364;2023-08-12T04:53:46;95451.56;;;15.73;100.00
6134;BME280;3098;42.678;23.364;2023-08-12T04:56:13;95496.97;;;16.23;100.00
6134;BME280;3098;42.678;23.364;2023-08-12T04:58:40;95485.44;;;16.43;100.00
6134;BME280;3098;42.678;23.364;2023-08-12T05:01:08;95456.94;;;16.26;100.00
6134;BME280;3098;42.678;23.364;2023-08-12T05:03:35;95422.56;;;16.16;100.00
6134;BME280;3098;42.678;23.364;2023-08-12T05:06:03;95518.34;;;16.64;100.00
6134;BME280;3098;42.678;23.364;2023-08-12T05:08:30;95515.19;;;17.07;100.00
6134;BME280;3098;42.678;23.364;2023-08-12T05:10:57;95454.97;;;16.92;100.00
6134;BME280;3098;42.678;23.364;2023-08-12T05:13:25;95409.78;;;16.91;100.00
6134;BME280;3098;42.678;23.364;2023-08-12T05:15:53;95392.56;;;17.16;100.00
6134;BME280;3098;42.678;23.364;2023-08-12T05:18:21;95394.59;;;18.26;100.00
6134;BME280;3098;42.678;23.364;2023-08-12T05:20:51;95392.81;;;19.78;100.00
6134;BME280;3098;42.678;23.364;2023-08-12T05:23:21;95389.16;;;21.71;83.78
6134;BME280;3098;42.678;23.364;2023-08-12T05:25:49;95516.31;;;22.45;80.44
6134;BME280;3098;42.678;23.364;2023-08-12T05:28:17;95506.16;;;21.79;81.90
6134;BME280;3098;42.678;23.364;2023-08-12T05:30:45;95520.22;;;23.62;75.40
6134;BME280;3098;42.678;23.364;2023-08-12T05:33:12;95558.34;;;24.51;69.64
6134;BME280;3098;42.678;23.364;2023-08-12T05:35:40;95176.09;;;22.44;66.06
6134;BME280;3098;42.678;23.364;2023-08-12T05:38:07;95527.34;;;24.45;66.34
6134;BME280;3098;42.678;23.364;2023-08-12T05:40:36;95532.19;;;25.01;64.72
6134;BME280;3098;42.678;23.364;2023-08-12T05:43:04;95520.38;;;24.51;65.20
6134;BME280;3098;42.678;23.364;2023-08-12T05:45:32;95334.44;;;24.79;60.40
6134;BME280;3098;42.678;23.364;2023-08-12T05:47:59;95528.53;;;26.85;57.45
6134;BME280;3098;42.678;23.364;2023-08-12T05:50:26;95418.72;;;26.40;55.84
6134;BME280;3098;42.678;23.364;2023-08-12T05:52:54;95421.66;;;27.73;53.18
6134;BME280;3098;42.678;23.364;2023-08-12T05:55:21;95550.78;;;29.01;49.94
6134;BME280;3098;42.678;23.364;2023-08-12T05:57:50;95507.94;;;27.90;49.83
6134;BME280;3098;42.678;23.364;2023-08-12T06:00:17;95399.22;;;26.48;51.56
6134;BME280;3098;42.678;23.364;2023-08-12T06:02:44;95359.22;;;25.44;53.11
6134;BME280;3098;42.678;23.364;2023-08-12T06:05:12;95462.22;;;26.43;53.72
6134;BME280;3098;42.678;23.364;2023-08-12T06:07:39;95356.69;;;26.06;52.46
6134;BME280;3098;42.678;23.364;2023-08-12T06:10:07;95510.44;;;27.19;51.67
6134;BME280;3098;42.678;23.364;2023-08-12T06:12:34;95511.44;;;27.39;52.28
6134;BME280;3098;42.678;23.364;2023-08-12T06:15:04;95463.56;;;28.87;48.00
6134;BME280;3098;42.678;23.364;2023-08-12T06:17:32;95475.50;;;29.00;47.19
6134;BME280;3098;42.678;23.364;2023-08-12T06:19:59;95501.28;;;28.69;48.02
6134;BME280;3098;42.678;23.364;2023-08-12T06:22:27;95288.06;;;27.76;46.70
6134;BME280;3098;42.678;23.364;2023-08-12T06:24:54;95516.63;;;31.31;42.80
6134;BME280;3098;42.678;23.364;2023-08-12T06:27:21;95301.66;;;29.37;42.49
6134;BME280;3098;42.678;23.364;2023-08-12T06:29:49;95516.41;;;31.42;40.62
6134;BME280;3098;42.678;23.364;2023-08-12T06:32:19;95515.59;;;30.07;42.01
6134;BME280;3098;42.678;23.364;2023-08-12T06:34:46;95516.16;;;30.61;41.76
6134;BME280;3098;42.678;23.364;2023-08-12T06:37:13;95336.75;;;29.58;41.13
6134;BME280;3098;42.678;23.364;2023-08-12T06:39:40;95448.88;;;31.15;40.33
6134;BME280;3098;42.678;23.364;2023-08-12T06:42:08;95436.13;;;31.57;39.40
6134;BME280;3098;42.678;23.364;2023-08-12T06:44:35;95500.72;;;30.51;41.37
6134;BME280;3098;42.678;23.364;2023-08-12T06:47:02;95468.97;;;31.09;39.48
6134;BME280;3098;42.678;23.364;2023-08-12T06:49:31;95445.75;;;30.61;39.41
6134;BME280;3098;42.678;23.364;2023-08-12T06:51:58;95372.66;;;30.94;38.91
6134;BME280;3098;42.678;23.364;2023-08-12T06:54:25;95487.34;;;27.85;43.99
6134;BME280;3098;42.678;23.364;2023-08-12T06:56:53;95487.53;;;28.09;45.13
6134;BME280;3098;42.678;23.364;2023-08-12T06:59:20;95361.84;;;28.83;42.76
6134;BME280;3098;42.678;23.364;2023-08-12T07:01:47;95228.16;;;28.00;41.49
6134;BME280;3098;42.678;23.364;2023-08-12T07:04:15;95494.78;;;29.17;41.98
6134;BME280;3098;42.678;23.364;2023-08-12T07:06:44;95396.00;;;28.68;42.11
6134;BME280;3098;42.678;23.364;2023-08-12T07:09:11;95487.44;;;29.10;42.08
6134;BME280;3098;42.678;23.364;2023-08-12T07:11:38;95434.72;;;27.92;43.37
6134;BME280;3098;42.678;23.364;2023-08-12T07:14:06;95434.59;;;28.67;43.00
6134;BME280;3098;42.678;23.364;2023-08-12T07:16:33;95378.22;;;29.76;40.52
6134;BME280;3098;42.678;23.364;2023-08-12T07:19:01;95482.78;;;30.27;41.13
6134;BME280;3098;42.678;23.364;2023-08-12T07:21:28;95496.63;;;31.66;39.54
6134;BME280;3098;42.678;23.364;2023-08-12T07:23:57;95481.44;;;31.29;39.71
6134;BME280;3098;42.678;23.364;2023-08-12T07:26:25;95273.00;;;29.22;39.44
6134;BME280;3098;42.678;23.364;2023-08-12T07:28:52;95471.31;;;31.26;38.74
6134;BME280;3098;42.678;23.364;2023-08-12T07:31:20;95126.50;;;27.99;40.14
6134;BME280;3098;42.678;23.364;2023-08-12T07:33:48;95500.91;;;28.67;41.06
6134;BME280;3098;42.678;23.364;2023-08-12T07:36:16;95458.09;;;25.96;45.24
6134;BME280;3098;42.678;23.364;2023-08-12T07:38:43;95163.53;;;24.75;46.06
6134;BME280;3098;42.678;23.364;2023-08-12T07:41:12;95326.97;;;27.39;43.37
6134;BME280;3098;42.678;23.364;2023-08-12T07:43:38;95478.06;;;30.07;41.72
6134;BME280;3098;42.678;23.364;2023-08-12T07:46:06;95465.31;;;31.80;38.78
6134;BME280;3098;42.678;23.364;2023-08-12T07:48:34;95421.97;;;31.26;37.81
6134;BME280;3098;42.678;23.364;2023-08-12T07:51:02;95468.72;;;31.19;37.38
6134;BME280;3098;42.678;23.364;2023-08-12T07:53:29;95471.66;;;30.57;38.21
6134;BME280;3098;42.678;23.364;2023-08-12T07:55:56;95469.44;;;30.29;39.15
6134;BME280;3098;42.678;23.364;2023-08-12T07:58:26;95467.56;;;30.85;38.29
6134;BME280;3098;42.678;23.364;2023-08-12T08:00:55;95435.41;;;31.37;36.51
6134;BME280;3098;42.678;23.364;2023-08-12T08:03:22;95331.03;;;29.92;37.22
6134;BME280;3098;42.678;23.364;2023-08-12T08:05:50;95123.88;;;29.04;37.23
6134;BME280;3098;42.678;23.364;2023-08-12T08:08:19;95421.63;;;31.41;36.63
6134;BME280;3098;42.678;23.364;2023-08-12T08:10:48;95456.19;;;32.15;35.03
6134;BME280;3098;42.678;23.364;2023-08-12T08:13:16;95381.16;;;30.80;36.02
6134;BME280;3098;42.678;23.364;2023-08-12T08:15:46;95451.38;;;32.19;34.84
6134;BME280;3098;42.678;23.364;2023-08-12T08:18:13;95453.00;;;33.12;33.63
6134;BME280;3098;42.678;23.364;2023-08-12T08:20:42;95462.06;;;33.85;32.24
6134;BME280;3098;42.678;23.364;2023-08-12T08:23:10;95220.69;;;31.56;32.58
6134;BME280;3098;42.678;23.364;2023-08-12T08:25:37;95398.22;;;32.55;32.26
6134;BME280;3098;42.678;23.364;2023-08-12T08:28:05;95340.53;;;32.67;31.57
6134;BME280;3098;42.678;23.364;2023-08-12T08:30:32;95456.84;;;33.65;32.51
6134;BME280;3098;42.678;23.364;2023-08-12T08:33:00;95297.75;;;31.46;32.62
6134;BME280;3098;42.678;23.364;2023-08-12T08:35:28;95455.50;;;32.94;33.30
6134;BME280;3098;42.678;23.364;2023-08-12T08:37:55;95450.09;;;32.36;33.14
6134;BME280;3098;42.678;23.364;2023-08-12T08:40:23;95443.78;;;31.50;35.44
6134;BME280;3098;42.678;23.364;2023-08-12T08:42:52;95451.97;;;32.39;34.05
6134;BME280;3098;42.678;23.364;2023-08-12T08:45:21;95343.53;;;32.19;32.37
6134;BME280;3098;42.678;23.364;2023-08-12T08:47:49;95433.50;;;32.69;32.15
6134;BME280;3098;42.678;23.364;2023-08-12T08:50:20;95355.28;;;31.62;32.50
6134;BME280;3098;42.678;23.364;2023-08-12T08:52:50;95391.13;;;31.22;33.44
6134;BME280;3098;42.678;23.364;2023-08-12T08:55:18;95434.16;;;31.58;34.57
6134;BME280;3098;42.678;23.364;2023-08-12T08:57:47;95199.84;;;29.33;35.39
6134;BME280;3098;42.678;23.364;2023-08-12T09:00:16;95209.03;;;29.42;35.17
6134;BME280;3098;42.678;23.364;2023-08-12T09:02:45;95316.97;;;28.84;36.63
6134;BME280;3098;42.678;23.364;2023-08-12T09:05:15;95424.88;;;30.08;36.43
6134;BME280;3098;42.678;23.364;2023-08-12T09:07:44;95436.13;;;31.57;34.90
6134;BME280;3098;42.678;23.364;2023-08-12T09:10:12;95436.38;;;32.08;33.75
6134;BME280;3098;42.678;23.364;2023-08-12T09:12:39;95360.41;;;32.05;32.88
6134;BME280;3098;42.678;23.364;2023-08-12T09:15:08;95419.44;;;33.89;31.49
6134;BME280;3098;42.678;23.364;2023-08-12T09:17:35;95374.06;;;33.13;31.46
6134;BME280;3098;42.678;23.364;2023-08-12T09:20:06;95421.44;;;31.80;33.07
6134;BME280;3098;42.678;23.364;2023-08-12T09:22:37;95410.94;;;30.78;34.36
6134;BME280;3098;42.678;23.364;2023-08-12T09:25:08;95413.28;;;31.76;33.88
6134;BME280;3098;42.678;23.364;2023-08-12T09:27:37;95143.38;;;30.91;31.95
6134;BME280;3098;42.678;23.364;2023-08-12T09:30:05;95214.38;;;30.37;32.32
6134;BME280;3098;42.678;23.364;2023-08-12T09:32:33;95343.44;;;31.20;33.01
6134;BME280;3098;42.678;23.364;2023-08-12T09:35:04;95191.16;;;30.26;32.97
6134;BME280;3098;42.678;23.364;2023-08-12T09:37:32;95325.19;;;30.65;33.86
6134;BME280;3098;42.678;23.364;2023-08-12T09:40:00;95404.59;;;31.33;33.08
6134;BME280;3098;42.678;23.364;2023-08-12T09:42:33;95325.53;;;31.31;32.81
6134;BME280;3098;42.678;23.364;2023-08-12T09:45:01;95382.19;;;32.91;31.14
6134;BME280;3098;42.678;23.364;2023-08-12T09:47:29;95386.91;;;33.75;29.79
6134;BME280;3098;42.678;23.364;2023-08-12T09:49:57;95317.91;;;31.68;32.16
6134;BME280;3098;42.678;23.364;2023-08-12T09:52:25;95289.00;;;33.09;30.31
6134;BME280;3098;42.678;23.364;2023-08-12T09:54:55;95170.19;;;32.08;31.09
6134;BME280;3098;42.678;23.364;2023-08-12T09:57:25;95317.25;;;31.64;32.39
6134;BME280;3098;42.678;23.364;2023-08-12T09:59:57;95350.31;;;30.96;33.67
6134;BME280;3098;42.678;23.364;2023-08-12T10:02:25;95372.28;;;31.41;33.42
6134;BME280;3098;42.678;23.364;2023-08-12T10:04:54;95227.06;;;29.95;34.67
6134;BME280;3098;42.678;23.364;2023-08-12T10:07:25;95315.34;;;30.32;35.12
6134;BME280;3098;42.678;23.364;2023-08-12T10:09:53;95073.44;;;29.64;34.06
6134;BME280;3098;42.678;23.364;2023-08-12T10:12:21;95037.19;;;30.70;32.52
6134;BME280;3098;42.678;23.364;2023-08-12T10:14:51;95345.50;;;31.77;33.05
6134;BME280;3098;42.678;23.364;2023-08-12T10:17:20;95351.28;;;31.66;33.19
6134;BME280;3098;42.678;23.364;2023-08-12T10:19:48;95340.63;;;32.51;33.00
6134;BME280;3098;42.678;23.364;2023-08-12T10:22:22;95347.19;;;31.87;32.57
6134;BME280;3098;42.678;23.364;2023-08-12T10:24:50;95348.00;;;32.67;31.95
6134;BME280;3098;42.678;23.364;2023-08-12T10:27:18;95346.69;;;32.84;31.22
6134;BME280;3098;42.678;23.364;2023-08-12T10:29:46;95329.72;;;32.22;31.89
6134;BME280;3098;42.678;23.364;2023-08-12T10:32:14;95207.09;;;30.79;32.97
6134;BME280;3098;42.678;23.364;2023-08-12T10:34:43;95181.25;;;31.38;32.74
6134;BME280;3098;42.678;23.364;2023-08-12T10:37:11;95337.66;;;33.21;30.83
6134;BME280;3098;42.678;23.364;2023-08-12T10:39:40;95291.41;;;32.31;31.85
6134;BME280;3098;42.678;23.364;2023-08-12T10:42:07;95330.50;;;31.94;31.96
6134;BME280;3098;42.678;23.364;2023-08-12T10:44:39;95232.78;;;32.25;30.88
6134;BME280;3098;42.678;23.364;2023-08-12T10:47:08;95042.72;;;31.49;30.12
6134;BME280;3098;42.678;23.364;2023-08-12T10:49:38;95160.00;;;31.96;30.21
6134;BME280;3098;42.678;23.364;2023-08-12T10:52:24;95325.91;;;31.91;31.73
6134;BME280;3098;42.678;23.364;2023-08-12T10:54:53;95220.91;;;31.49;31.32
6134;BME280;3098;42.678;23.364;2023-08-12T10:57:34;95288.91;;;31.54;30.90
6134;BME280;3098;42.678;23.364;2023-08-12T11:00:04;95188.88;;;31.17;29.73
6134;BME280;3098;42.678;23.364;2023-08-12T11:02:33;95303.53;;;31.93;30.69
6134;BME280;3098;42.678;23.364;2023-08-12T11:05:02;95292.13;;;31.65;30.85
6134;BME280;3098;42.678;23.364;2023-08-12T11:07:39;95180.09;;;28.82;32.82
6134;BME280;3098;42.678;23.364;2023-08-12T11:10:12;95300.03;;;31.02;31.94
6134;BME280;3098;42.678;23.364;2023-08-12T11:12:41;95071.44;;;30.62;29.73
6134;BME280;3098;42.678;23.364;2023-08-12T11:15:10;95239.25;;;31.52;29.86
6134;BME280;3098;42.678;23.364;2023-08-12T11:17:40;95310.13;;;31.95;29.52
6134;BME280;3098;42.678;23.364;2023-08-12T11:20:09;95176.25;;;31.07;27.56
6134;BME280;3098;42.678;23.364;2023-08-12T11:22:41;95296.31;;;30.96;29.20
6134;BME280;3098;42.678;23.364;2023-08-12T11:25:10;95300.19;;;31.27;29.54
6134;BME280;3098;42.678;23.364;2023-08-12T11:27:39;95304.66;;;31.05;30.28
6134;BME280;3098;42.678;23.364;2023-08-12T11:30:08;95294.31;;;31.58;29.66
6134;BME280;3098;42.678;23.364;2023-08-12T11:32:37;95287.44;;;32.07;30.13
6134;BME280;3098;42.678;23.364;2023-08-12T11:35:05;95268.03;;;32.27;29.59
6134;BME280;3098;42.678;23.364;2023-08-12T11:37:35;95148.00;;;31.23;29.78
6134;BME280;3098;42.678;23.364;2023-08-12T11:40:06;95166.56;;;31.03;29.46
6134;BME280;3098;42.678;23.364;2023-08-12T11:42:35;95289.84;;;31.03;30.11
6134;BME280;3098;42.678;23.364;2023-08-12T11:45:03;95051.22;;;27.82;31.46
6134;BME280;3098;42.678;23.364;2023-08-12T11:47:31;95284.34;;;30.02;30.10
6134;BME280;3098;42.678;23.364;2023-08-12T11:49:58;95159.22;;;28.72;31.00
6134;BME280;3098;42.678;23.364;2023-08-12T11:52:25;95060.31;;;27.75;30.73
6134;BME280;3098;42.678;23.364;2023-08-12T11:54:53;95232.56;;;28.20;31.89
6134;BME280;3098;42.678;23.364;2023-08-12T11:57:24;95236.25;;;28.33;31.52
6134;BME280;3098;42.678;23.364;2023-08-12T11:59:53;95276.91;;;28.24;31.86
6134;BME280;3098;42.678;23.364;2023-08-12T12:02:25;95283.06;;;28.32;32.39
6134;BME280;3098;42.678;23.364;2023-08-12T12:04:53;95057.50;;;26.99;32.36
6134;BME280;3098;42.678;23.364;2023-08-12T12:07:21;95279.81;;;28.40;32.05
6134;BME280;3098;42.678;23.364;2023-08-12T12:09:51;95059.13;;;27.19;31.32
6134;BME280;3098;42.678;23.364;2023-08-12T12:12:24;95201.88;;;28.13;30.98
6134;BME280;3098;42.678;23.364;2023-08-12T12:14:51;95263.41;;;28.67;32.24
6134;BME280;3098;42.678;23.364;2023-08-12T12:17:21;95162.59;;;28.33;32.03
6134;BME280;3098;42.678;23.364;2023-08-12T12:19:53;95087.34;;;28.36;32.04
6134;BME280;3098;42.678;23.364;2023-08-12T12:22:26;95137.09;;;28.67;32.23
6134;BME280;3098;42.678;23.364;2023-08-12T12:24:58;95029.72;;;27.64;32.72
6134;BME280;3098;42.678;23.364;2023-08-12T12:27:28;95044.88;;;27.65;33.23
6134;BME280;3098;42.678;23.364;2023-08-12T12:29:56;95121.66;;;28.10;33.84
6134;BME280;3098;42.678;23.364;2023-08-12T12:32:23;95251.03;;;28.59;36.38
6134;BME280;3098;42.678;23.364;2023-08-12T12:34:53;95262.19;;;28.45;36.62
6134;BME280;3098;42.678;23.364;2023-08-12T12:37:21;95242.22;;;27.98;37.38
6134;BME280;3098;42.678;23.364;2023-08-12T12:39:49;95173.34;;;27.00;38.14
6134;BME280;3098;42.678;23.364;2023-08-12T12:42:17;95164.19;;;26.87;38.34
6134;BME280;3098;42.678;23.364;2023-08-12T12:44:46;95179.69;;;26.90;39.61
6134;BME280;3098;42.678;23.364;2023-08-12T12:47:14;95248.19;;;27.22;39.23
6134;BME280;3098;42.678;23.364;2023-08-12T12:49:41;95168.19;;;26.71;39.13
6134;BME280;3098;42.678;23.364;2023-08-12T12:52:09;95183.09;;;26.97;38.70
6134;BME280;3098;42.678;23.364;2023-08-12T12:54:36;95222.84;;;27.25;38.89
6134;BME280;3098;42.678;23.364;2023-08-12T12:57:04;95234.84;;;27.65;38.41
6134;BME280;3098;42.678;23.364;2023-08-12T12:59:32;95227.69;;;28.08;38.15
6134;BME280;3098;42.678;23.364;2023-08-12T13:02:01;95224.94;;;28.58;37.13
6134;BME280;3098;42.678;23.364;2023-08-12T13:04:28;95087.19;;;27.73;36.03
6134;BME280;3098;42.678;23.364;2023-08-12T13:06:55;95156.78;;;28.31;36.25
6134;BME280;3098;42.678;23.364;2023-08-12T13:09:23;95136.56;;;28.29;35.68
6134;BME280;3098;42.678;23.364;2023-08-12T13:11:50;95167.03;;;29.13;35.61
6134;BME280;3098;42.678;23.364;2023-08-12T13:14:18;95172.41;;;28.77;36.06